Terminal Aerodrome Forecast
Issued by NWS Upton, NY

Home | Current Version | Previous Version | Text Only | Print | Product List | Glossary On
Versions: 1 2 3 4 5 6 7 8 9 10 11 12 13 14 15 16 17 18 19 20 21 22 23 24 25 26
000
FTUS41 KOKX 210800 AAA
TAFEWR
TAF AMD
KEWR 210848Z 2109/2212 VRB04KT 6SM BR SCT007 BKN015
      TEMPO 2110/2113 5SM BR SCT007
     FM211400 VRB04KT P6SM SCT015 BKN025
     FM211600 14005KT P6SM SCT025 BKN035
     FM211800 15007KT P6SM FEW025 SCT250
     FM220100 26007KT P6SM SCT040 BKN250
     FM220500 28010KT P6SM SCT040=

USA.gov is the U.S. government's official web portal to all federal, state and local government web resources and services.